sensor_id;sensor_type;location;lat;lon;timestamp;temperature;humidity
8824;DHT22;4448;50.904;4.694;2023-11-21T00:02:21;10.30;99.90
8824;DHT22;4448;50.904;4.694;2023-11-21T00:04:48;10.10;99.90
8824;DHT22;4448;50.904;4.694;2023-11-21T00:07:14;10.90;99.90
8824;DHT22;4448;50.904;4.694;2023-11-21T00:09:40;10.90;99.90
8824;DHT22;4448;50.904;4.694;2023-11-21T00:12:07;11.20;99.90
8824;DHT22;4448;50.904;4.694;2023-11-21T00:14:37;11.20;99.90
8824;DHT22;4448;50.904;4.694;2023-11-21T00:17:04;10.60;99.90
8824;DHT22;4448;50.904;4.694;2023-11-21T00:19:31;10.90;99.90
8824;DHT22;4448;50.904;4.694;2023-11-21T00:21:56;10.70;99.90
8824;DHT22;4448;50.904;4.694;2023-11-21T00:24:23;12.10;99.90
8824;DHT22;4448;50.904;4.694;2023-11-21T00:26:50;12.40;99.90
8824;DHT22;4448;50.904;4.694;2023-11-21T00:29:16;10.90;99.90
8824;DHT22;4448;50.904;4.694;2023-11-21T00:31:44;10.90;99.90
8824;DHT22;4448;50.904;4.694;2023-11-21T00:34:11;10.80;99.90
8824;DHT22;4448;50.904;4.694;2023-11-21T00:36:37;11.20;99.90
8824;DHT22;4448;50.904;4.694;2023-11-21T00:39:03;10.90;99.90
8824;DHT22;4448;50.904;4.694;2023-11-21T00:43:55;10.90;99.90
8824;DHT22;4448;50.904;4.694;2023-11-21T00:46:21;10.90;99.90
8824;DHT22;4448;50.904;4.694;2023-11-21T00:48:46;10.90;99.90
8824;DHT22;4448;50.904;4.694;2023-11-21T00:51:12;10.90;99.90
8824;DHT22;4448;50.904;4.694;2023-11-21T00:53:38;10.90;99.90
8824;DHT22;4448;50.904;4.694;2023-11-21T00:56:23;10.90;99.90
8824;DHT22;4448;50.904;4.694;2023-11-21T00:58:49;11.10;99.90
8824;DHT22;4448;50.904;4.694;2023-11-21T01:01:20;10.90;99.90
8824;DHT22;4448;50.904;4.694;2023-11-21T01:03:48;10.80;99.90
8824;DHT22;4448;50.904;4.694;2023-11-21T01:06:15;10.80;99.90
8824;DHT22;4448;50.904;4.694;2023-11-21T01:08:41;10.70;99.90
8824;DHT22;4448;50.904;4.694;2023-11-21T01:11:06;11.20;99.90
8824;DHT22;4448;50.904;4.694;2023-11-21T01:13:41;10.40;99.90
8824;DHT22;4448;50.904;4.694;2023-11-21T01:16:08;10.10;99.90
8824;DHT22;4448;50.904;4.694;2023-11-21T01:18:35;10.10;99.90
8824;DHT22;4448;50.904;4.694;2023-11-21T01:21:01;10.70;99.90
8824;DHT22;4448;50.904;4.694;2023-11-21T01:23:27;10.40;99.90
8824;DHT22;4448;50.904;4.694;2023-11-21T01:25:53;8.60;99.90
8824;DHT22;4448;50.904;4.694;2023-11-21T01:28:19;10.40;99.90
8824;DHT22;4448;50.904;4.694;2023-11-21T01:30:45;9.80;99.90
8824;DHT22;4448;50.904;4.694;2023-11-21T01:33:11;10.50;99.90
8824;DHT22;4448;50.904;4.694;2023-11-21T01:35:37;10.50;99.90
8824;DHT22;4448;50.904;4.694;2023-11-21T01:40:30;10.50;99.90
8824;DHT22;4448;50.904;4.694;2023-11-21T01:42:56;10.50;99.90
8824;DHT22;4448;50.904;4.694;2023-11-21T01:45:23;10.50;99.90
8824;DHT22;4448;50.904;4.694;2023-11-21T01:47:50;10.50;99.90
8824;DHT22;4448;50.904;4.694;2023-11-21T01:50:17;10.60;99.90
8824;DHT22;4448;50.904;4.694;2023-11-21T01:52:46;10.60;99.90
8824;DHT22;4448;50.904;4.694;2023-11-21T01:55:15;10.60;99.90
8824;DHT22;4448;50.904;4.694;2023-11-21T01:57:43;10.60;99.90
8824;DHT22;4448;50.904;4.694;2023-11-21T02:00:10;11.50;99.90
8824;DHT22;4448;50.904;4.694;2023-11-21T02:02:45;10.60;99.90
8824;DHT22;4448;50.904;4.694;2023-11-21T02:05:13;10.70;99.90
8824;DHT22;4448;50.904;4.694;2023-11-21T02:07:42;10.60;99.90
8824;DHT22;4448;50.904;4.694;2023-11-21T02:10:08;10.60;99.90
8824;DHT22;4448;50.904;4.694;2023-11-21T02:12:35;10.60;99.90
8824;DHT22;4448;50.904;4.694;2023-11-21T02:15:04;10.60;99.90
8824;DHT22;4448;50.904;4.694;2023-11-21T02:17:35;10.60;99.90
8824;DHT22;4448;50.904;4.694;2023-11-21T02:20:01;10.60;99.90
8824;DHT22;4448;50.904;4.694;2023-11-21T02:22:31;10.60;99.90
8824;DHT22;4448;50.904;4.694;2023-11-21T02:24:58;10.50;99.90
8824;DHT22;4448;50.904;4.694;2023-11-21T02:27:24;10.50;99.90
8824;DHT22;4448;50.904;4.694;2023-11-21T02:29:50;10.40;99.90
8824;DHT22;4448;50.904;4.694;2023-11-21T02:32:16;10.60;99.90
8824;DHT22;4448;50.904;4.694;2023-11-21T02:34:44;10.60;99.90
8824;DHT22;4448;50.904;4.694;2023-11-21T02:37:10;10.80;99.90
8824;DHT22;4448;50.904;4.694;2023-11-21T02:39:36;10.60;99.90
8824;DHT22;4448;50.904;4.694;2023-11-21T02:42:01;10.60;99.90
8824;DHT22;4448;50.904;4.694;2023-11-21T02:44:27;10.60;99.90
8824;DHT22;4448;50.904;4.694;2023-11-21T02:46:52;10.60;99.90
8824;DHT22;4448;50.904;4.694;2023-11-21T02:49:18;10.60;99.90
8824;DHT22;4448;50.904;4.694;2023-11-21T02:51:44;11.50;99.90
8824;DHT22;4448;50.904;4.694;2023-11-21T02:54:11;10.60;99.90
8824;DHT22;4448;50.904;4.694;2023-11-21T02:56:37;10.70;99.90
8824;DHT22;4448;50.904;4.694;2023-11-21T02:59:02;10.60;99.90
8824;DHT22;4448;50.904;4.694;2023-11-21T03:01:28;10.50;99.90
8824;DHT22;4448;50.904;4.694;2023-11-21T03:03:54;10.60;99.90
8824;DHT22;4448;50.904;4.694;2023-11-21T03:06:21;10.60;99.90
8824;DHT22;4448;50.904;4.694;2023-11-21T03:08:47;10.60;99.90
8824;DHT22;4448;50.904;4.694;2023-11-21T03:11:13;12.10;99.90
8824;DHT22;4448;50.904;4.694;2023-11-21T03:13:42;10.60;99.90
8824;DHT22;4448;50.904;4.694;2023-11-21T03:16:11;10.50;99.90
8824;DHT22;4448;50.904;4.694;2023-11-21T03:18:38;10.50;99.90
8824;DHT22;4448;50.904;4.694;2023-11-21T03:21:05;10.00;99.90
8824;DHT22;4448;50.904;4.694;2023-11-21T03:23:31;10.60;99.90
8824;DHT22;4448;50.904;4.694;2023-11-21T03:25:57;10.60;99.90
8824;DHT22;4448;50.904;4.694;2023-11-21T03:28:23;10.50;99.90
8824;DHT22;4448;50.904;4.694;2023-11-21T03:30:49;10.60;99.90
8824;DHT22;4448;50.904;4.694;2023-11-21T03:33:15;10.60;99.90
8824;DHT22;4448;50.904;4.694;2023-11-21T03:35:40;10.60;99.90
8824;DHT22;4448;50.904;4.694;2023-11-21T03:38:07;10.70;99.90
8824;DHT22;4448;50.904;4.694;2023-11-21T03:40:33;10.60;99.90
8824;DHT22;4448;50.904;4.694;2023-11-21T03:42:59;11.00;99.90
8824;DHT22;4448;50.904;4.694;2023-11-21T03:45:24;10.60;99.90
8824;DHT22;4448;50.904;4.694;2023-11-21T03:47:50;10.70;99.90
8824;DHT22;4448;50.904;4.694;2023-11-21T03:50:16;10.70;99.90
8824;DHT22;4448;50.904;4.694;2023-11-21T03:52:42;10.60;99.90
8824;DHT22;4448;50.904;4.694;2023-11-21T03:55:08;10.60;99.90
8824;DHT22;4448;50.904;4.694;2023-11-21T03:57:34;10.60;99.90
8824;DHT22;4448;50.904;4.694;2023-11-21T03:59:59;10.60;99.90
8824;DHT22;4448;50.904;4.694;2023-11-21T04:02:25;10.60;99.90
8824;DHT22;4448;50.904;4.694;2023-11-21T04:04:51;10.60;99.90
8824;DHT22;4448;50.904;4.694;2023-11-21T04:07:17;10.70;99.90
8824;DHT22;4448;50.904;4.694;2023-11-21T04:09:43;11.10;99.90
8824;DHT22;4448;50.904;4.694;2023-11-21T04:12:09;10.70;99.90
8824;DHT22;4448;50.904;4.694;2023-11-21T04:14:35;10.70;99.90
8824;DHT22;4448;50.904;4.694;2023-11-21T04:17:00;10.70;99.90
8824;DHT22;4448;50.904;4.694;2023-11-21T04:19:26;10.60;99.90
8824;DHT22;4448;50.904;4.694;2023-11-21T04:21:52;10.70;99.90
8824;DHT22;4448;50.904;4.694;2023-11-21T04:24:17;10.70;99.90
8824;DHT22;4448;50.904;4.694;2023-11-21T04:26:44;10.90;99.90
8824;DHT22;4448;50.904;4.694;2023-11-21T04:29:09;10.70;99.90
8824;DHT22;4448;50.904;4.694;2023-11-21T04:31:35;10.60;99.90
8824;DHT22;4448;50.904;4.694;2023-11-21T04:34:01;10.70;99.90
8824;DHT22;4448;50.904;4.694;2023-11-21T04:36:26;10.70;99.90
8824;DHT22;4448;50.904;4.694;2023-11-21T04:38:52;11.00;99.90
8824;DHT22;4448;50.904;4.694;2023-11-21T04:41:18;10.70;99.90
8824;DHT22;4448;50.904;4.694;2023-11-21T04:43:43;10.70;99.90
8824;DHT22;4448;50.904;4.694;2023-11-21T04:46:09;10.70;99.90
8824;DHT22;4448;50.904;4.694;2023-11-21T04:48:35;10.70;99.90
8824;DHT22;4448;50.904;4.694;2023-11-21T04:51:00;10.80;99.90
8824;DHT22;4448;50.904;4.694;2023-11-21T04:53:26;10.80;99.90
8824;DHT22;4448;50.904;4.694;2023-11-21T04:55:51;10.80;99.90
8824;DHT22;4448;50.904;4.694;2023-11-21T04:58:17;10.80;99.90
8824;DHT22;4448;50.904;4.694;2023-11-21T05:00:44;10.80;99.90
8824;DHT22;4448;50.904;4.694;2023-11-21T05:03:10;10.80;99.90
8824;DHT22;4448;50.904;4.694;2023-11-21T05:05:36;10.80;99.90
8824;DHT22;4448;50.904;4.694;2023-11-21T05:08:01;10.80;99.90
8824;DHT22;4448;50.904;4.694;2023-11-21T05:10:28;10.80;99.90
8824;DHT22;4448;50.904;4.694;2023-11-21T05:12:54;10.80;99.90
8824;DHT22;4448;50.904;4.694;2023-11-21T05:15:21;10.80;99.90
8824;DHT22;4448;50.904;4.694;2023-11-21T05:17:47;10.80;99.90
8824;DHT22;4448;50.904;4.694;2023-11-21T05:20:15;10.70;99.90
8824;DHT22;4448;50.904;4.694;2023-11-21T05:22:50;10.80;99.90
8824;DHT22;4448;50.904;4.694;2023-11-21T05:25:16;11.00;99.90
8824;DHT22;4448;50.904;4.694;2023-11-21T05:27:46;10.80;99.90
8824;DHT22;4448;50.904;4.694;2023-11-21T05:30:12;10.80;99.90
8824;DHT22;4448;50.904;4.694;2023-11-21T05:32:38;10.80;99.90
8824;DHT22;4448;50.904;4.694;2023-11-21T05:35:05;10.80;99.90
8824;DHT22;4448;50.904;4.694;2023-11-21T05:37:38;10.80;99.90
8824;DHT22;4448;50.904;4.694;2023-11-21T05:40:07;10.80;99.90
8824;DHT22;4448;50.904;4.694;2023-11-21T05:42:36;10.80;99.90
8824;DHT22;4448;50.904;4.694;2023-11-21T05:45:04;10.80;99.90
8824;DHT22;4448;50.904;4.694;2023-11-21T05:47:46;10.80;99.90
8824;DHT22;4448;50.904;4.694;2023-11-21T05:50:14;10.80;99.90
8824;DHT22;4448;50.904;4.694;2023-11-21T05:52:44;10.10;99.90
8824;DHT22;4448;50.904;4.694;2023-11-21T05:55:11;10.80;99.90
8824;DHT22;4448;50.904;4.694;2023-11-21T05:57:40;10.30;99.90
8824;DHT22;4448;50.904;4.694;2023-11-21T06:00:11;11.10;99.90
8824;DHT22;4448;50.904;4.694;2023-11-21T06:02:48;10.90;99.90
8824;DHT22;4448;50.904;4.694;2023-11-21T06:05:17;10.90;99.90
8824;DHT22;4448;50.904;4.694;2023-11-21T06:07:43;10.80;99.90
8824;DHT22;4448;50.904;4.694;2023-11-21T06:10:11;10.80;99.90
8824;DHT22;4448;50.904;4.694;2023-11-21T06:12:38;8.90;99.90
8824;DHT22;4448;50.904;4.694;2023-11-21T06:15:06;10.80;99.90
8824;DHT22;4448;50.904;4.694;2023-11-21T06:17:35;10.70;99.90
8824;DHT22;4448;50.904;4.694;2023-11-21T06:20:06;10.90;99.90
8824;DHT22;4448;50.904;4.694;2023-11-21T06:22:38;10.90;99.90
8824;DHT22;4448;50.904;4.694;2023-11-21T06:25:05;11.00;99.90
8824;DHT22;4448;50.904;4.694;2023-11-21T06:27:42;10.90;99.90
8824;DHT22;4448;50.904;4.694;2023-11-21T06:30:08;11.00;99.90
8824;DHT22;4448;50.904;4.694;2023-11-21T06:32:38;10.90;99.90
8824;DHT22;4448;50.904;4.694;2023-11-21T06:35:08;10.90;99.90
8824;DHT22;4448;50.904;4.694;2023-11-21T06:37:36;10.90;99.90
8824;DHT22;4448;50.904;4.694;2023-11-21T06:40:02;10.90;99.90
8824;DHT22;4448;50.904;4.694;2023-11-21T06:42:29;10.90;99.90
8824;DHT22;4448;50.904;4.694;2023-11-21T06:44:55;10.50;99.90
8824;DHT22;4448;50.904;4.694;2023-11-21T06:47:25;10.90;99.90
8824;DHT22;4448;50.904;4.694;2023-11-21T06:49:52;10.90;99.90
8824;DHT22;4448;50.904;4.694;2023-11-21T06:52:18;11.20;99.90
8824;DHT22;4448;50.904;4.694;2023-11-21T06:54:44;11.00;99.90
8824;DHT22;4448;50.904;4.694;2023-11-21T06:57:11;10.70;99.90
8824;DHT22;4448;50.904;4.694;2023-11-21T06:59:37;11.00;99.90
8824;DHT22;4448;50.904;4.694;2023-11-21T07:02:03;11.00;99.90
8824;DHT22;4448;50.904;4.694;2023-11-21T07:04:37;11.10;99.90
8824;DHT22;4448;50.904;4.694;2023-11-21T07:07:04;11.10;99.90
8824;DHT22;4448;50.904;4.694;2023-11-21T07:09:30;11.20;99.90
8824;DHT22;4448;50.904;4.694;2023-11-21T07:11:56;11.10;99.90
8824;DHT22;4448;50.904;4.694;2023-11-21T07:14:22;11.10;99.90
8824;DHT22;4448;50.904;4.694;2023-11-21T07:16:48;10.70;99.90
8824;DHT22;4448;50.904;4.694;2023-11-21T07:19:14;11.10;99.90
8824;DHT22;4448;50.904;4.694;2023-11-21T07:21:40;11.10;99.90
8824;DHT22;4448;50.904;4.694;2023-11-21T07:24:07;11.10;99.90
8824;DHT22;4448;50.904;4.694;2023-11-21T07:26:33;11.10;99.90
8824;DHT22;4448;50.904;4.694;2023-11-21T07:29:02;11.10;99.90
8824;DHT22;4448;50.904;4.694;2023-11-21T07:31:29;11.10;99.90
8824;DHT22;4448;50.904;4.694;2023-11-21T07:33:55;11.10;99.90
8824;DHT22;4448;50.904;4.694;2023-11-21T07:36:24;11.00;99.90
8824;DHT22;4448;50.904;4.694;2023-11-21T07:38:50;11.00;99.90
8824;DHT22;4448;50.904;4.694;2023-11-21T07:41:17;10.00;99.90
8824;DHT22;4448;50.904;4.694;2023-11-21T07:43:46;11.10;99.90
8824;DHT22;4448;50.904;4.694;2023-11-21T07:46:12;11.10;99.90
8824;DHT22;4448;50.904;4.694;2023-11-21T07:48:39;11.10;99.90
8824;DHT22;4448;50.904;4.694;2023-11-21T07:51:06;11.10;99.90
8824;DHT22;4448;50.904;4.694;2023-11-21T07:53:32;11.10;99.90
8824;DHT22;4448;50.904;4.694;2023-11-21T07:56:00;11.10;99.90
8824;DHT22;4448;50.904;4.694;2023-11-21T07:58:28;11.10;99.90
8824;DHT22;4448;50.904;4.694;2023-11-21T08:00:54;11.10;99.90
8824;DHT22;4448;50.904;4.694;2023-11-21T08:03:19;11.10;99.90
8824;DHT22;4448;50.904;4.694;2023-11-21T08:05:45;11.20;99.90
8824;DHT22;4448;50.904;4.694;2023-11-21T08:08:11;11.20;99.90
8824;DHT22;4448;50.904;4.694;2023-11-21T08:10:36;11.20;99.90
8824;DHT22;4448;50.904;4.694;2023-11-21T08:13:03;11.20;99.90
8824;DHT22;4448;50.904;4.694;2023-11-21T08:15:29;11.20;99.90
8824;DHT22;4448;50.904;4.694;2023-11-21T08:17:57;11.10;99.90
8824;DHT22;4448;50.904;4.694;2023-11-21T08:20:24;11.20;99.90
8824;DHT22;4448;50.904;4.694;2023-11-21T08:22:50;11.30;99.90
8824;DHT22;4448;50.904;4.694;2023-11-21T08:25:18;11.90;99.90
8824;DHT22;4448;50.904;4.694;2023-11-21T08:27:45;11.10;99.90
8824;DHT22;4448;50.904;4.694;2023-11-21T08:30:12;11.30;99.90
8824;DHT22;4448;50.904;4.694;2023-11-21T08:32:39;11.30;99.90
8824;DHT22;4448;50.904;4.694;2023-11-21T08:35:07;11.30;99.90
8824;DHT22;4448;50.904;4.694;2023-11-21T08:37:33;11.30;99.90
8824;DHT22;4448;50.904;4.694;2023-11-21T08:40:03;11.30;99.90
8824;DHT22;4448;50.904;4.694;2023-11-21T08:42:29;11.30;99.90
8824;DHT22;4448;50.904;4.694;2023-11-21T08:44:56;11.30;99.90
8824;DHT22;4448;50.904;4.694;2023-11-21T08:47:23;11.30;99.90
8824;DHT22;4448;50.904;4.694;2023-11-21T08:49:50;11.30;99.90
8824;DHT22;4448;50.904;4.694;2023-11-21T08:52:19;11.30;99.90
8824;DHT22;4448;50.904;4.694;2023-11-21T08:54:48;11.30;99.90
8824;DHT22;4448;50.904;4.694;2023-11-21T08:57:14;11.40;99.90
8824;DHT22;4448;50.904;4.694;2023-11-21T08:59:40;11.40;99.90
8824;DHT22;4448;50.904;4.694;2023-11-21T09:02:05;11.40;99.90
8824;DHT22;4448;50.904;4.694;2023-11-21T09:04:31;11.40;99.90
8824;DHT22;4448;50.904;4.694;2023-11-21T09:06:57;11.40;99.90
8824;DHT22;4448;50.904;4.694;2023-11-21T09:09:25;11.40;99.90
8824;DHT22;4448;50.904;4.694;2023-11-21T09:11:51;11.40;99.90
8824;DHT22;4448;50.904;4.694;2023-11-21T09:14:16;11.50;99.90
8824;DHT22;4448;50.904;4.694;2023-11-21T09:16:43;11.40;99.90
8824;DHT22;4448;50.904;4.694;2023-11-21T09:19:09;11.50;99.90
8824;DHT22;4448;50.904;4.694;2023-11-21T09:21:34;11.50;99.90
8824;DHT22;4448;50.904;4.694;2023-11-21T09:24:01;11.50;99.90
8824;DHT22;4448;50.904;4.694;2023-11-21T09:26:28;11.60;99.90
8824;DHT22;4448;50.904;4.694;2023-11-21T09:28:55;11.60;99.90
8824;DHT22;4448;50.904;4.694;2023-11-21T09:31:22;11.60;99.90
8824;DHT22;4448;50.904;4.694;2023-11-21T09:33:49;11.60;99.90
8824;DHT22;4448;50.904;4.694;2023-11-21T09:36:15;12.10;99.90
8824;DHT22;4448;50.904;4.694;2023-11-21T09:38:41;11.10;99.90
8824;DHT22;4448;50.904;4.694;2023-11-21T09:41:19;11.90;99.90
8824;DHT22;4448;50.904;4.694;2023-11-21T09:43:47;11.60;99.90
8824;DHT22;4448;50.904;4.694;2023-11-21T09:46:19;11.60;99.90
8824;DHT22;4448;50.904;4.694;2023-11-21T09:48:50;11.60;99.90
8824;DHT22;4448;50.904;4.694;2023-11-21T09:51:19;11.60;99.90
8824;DHT22;4448;50.904;4.694;2023-11-21T09:53:50;11.70;99.90
8824;DHT22;4448;50.904;4.694;2023-11-21T09:56:18;11.70;99.90
8824;DHT22;4448;50.904;4.694;2023-11-21T09:58:51;11.70;99.90
8824;DHT22;4448;50.904;4.694;2023-11-21T10:01:19;11.70;99.90
8824;DHT22;4448;50.904;4.694;2023-11-21T10:03:45;11.80;99.90
8824;DHT22;4448;50.904;4.694;2023-11-21T10:06:13;11.80;99.90
8824;DHT22;4448;50.904;4.694;2023-11-21T10:08:40;11.80;99.90
8824;DHT22;4448;50.904;4.694;2023-11-21T10:11:08;11.80;99.90
8824;DHT22;4448;50.904;4.694;2023-11-21T10:13:37;11.80;99.90
8824;DHT22;4448;50.904;4.694;2023-11-21T10:16:04;11.80;99.90
8824;DHT22;4448;50.904;4.694;2023-11-21T10:18:32;11.80;99.90
8824;DHT22;4448;50.904;4.694;2023-11-21T10:21:00;11.80;99.90
8824;DHT22;4448;50.904;4.694;2023-11-21T10:23:26;11.70;99.90
8824;DHT22;4448;50.904;4.694;2023-11-21T10:25:52;11.70;99.90
8824;DHT22;4448;50.904;4.694;2023-11-21T10:28:18;11.70;99.90
8824;DHT22;4448;50.904;4.694;2023-11-21T10:30:46;11.70;99.90
8824;DHT22;4448;50.904;4.694;2023-11-21T10:33:12;11.70;99.90
8824;DHT22;4448;50.904;4.694;2023-11-21T10:35:45;11.70;99.90
8824;DHT22;4448;50.904;4.694;2023-11-21T10:38:13;11.80;99.90
8824;DHT22;4448;50.904;4.694;2023-11-21T10:40:40;11.80;99.90
8824;DHT22;4448;50.904;4.694;2023-11-21T10:43:08;11.80;99.90
8824;DHT22;4448;50.904;4.694;2023-11-21T10:45:36;11.80;99.90
8824;DHT22;4448;50.904;4.694;2023-11-21T10:48:09;11.90;99.90
8824;DHT22;4448;50.904;4.694;2023-11-21T10:50:36;11.90;99.90
8824;DHT22;4448;50.904;4.694;2023-11-21T10:53:05;11.90;99.90
8824;DHT22;4448;50.904;4.694;2023-11-21T10:55:33;11.90;99.90
8824;DHT22;4448;50.904;4.694;2023-11-21T10:58:00;12.00;99.90
8824;DHT22;4448;50.904;4.694;2023-11-21T11:00:28;12.00;99.90
8824;DHT22;4448;50.904;4.694;2023-11-21T11:02:55;11.90;99.90
8824;DHT22;4448;50.904;4.694;2023-11-21T11:05:22;11.90;99.90
8824;DHT22;4448;50.904;4.694;2023-11-21T11:08:25;11.90;99.90
8824;DHT22;4448;50.904;4.694;2023-11-21T11:10:45;11.90;99.90
8824;DHT22;4448;50.904;4.694;2023-11-21T11:13:13;11.90;99.90
8824;DHT22;4448;50.904;4.694;2023-11-21T11:15:40;11.90;99.90
8824;DHT22;4448;50.904;4.694;2023-11-21T11:18:07;11.90;99.90
8824;DHT22;4448;50.904;4.694;2023-11-21T11:20:36;11.90;99.90
8824;DHT22;4448;50.904;4.694;2023-11-21T11:29:13;11.90;99.90
8824;DHT22;4448;50.904;4.694;2023-11-21T11:34:36;11.90;99.90
8824;DHT22;4448;50.904;4.694;2023-11-21T11:37:07;11.90;99.90
8824;DHT22;4448;50.904;4.694;2023-11-21T11:39:41;11.90;99.90
8824;DHT22;4448;50.904;4.694;2023-11-21T11:42:14;11.90;99.90
8824;DHT22;4448;50.904;4.694;2023-11-21T11:50:11;12.00;99.90
8824;DHT22;4448;50.904;4.694;2023-11-21T11:52:49;12.00;99.90
8824;DHT22;4448;50.904;4.694;2023-11-21T11:55:18;12.00;99.90
8824;DHT22;4448;50.904;4.694;2023-11-21T11:57:50;12.00;99.90
8824;DHT22;4448;50.904;4.694;2023-11-21T12:02:44;12.10;99.90
8824;DHT22;4448;50.904;4.694;2023-11-21T12:05:18;12.10;99.90
8824;DHT22;4448;50.904;4.694;2023-11-21T12:07:51;12.20;99.90
8824;DHT22;4448;50.904;4.694;2023-11-21T12:10:22;12.20;99.90
8824;DHT22;4448;50.904;4.694;2023-11-21T12:12:52;12.30;99.90
8824;DHT22;4448;50.904;4.694;2023-11-21T12:15:19;12.40;99.90
8824;DHT22;4448;50.904;4.694;2023-11-21T12:17:45;12.50;99.90
8824;DHT22;4448;50.904;4.694;2023-11-21T12:20:12;12.50;99.90
8824;DHT22;4448;50.904;4.694;2023-11-21T12:22:50;12.50;99.90
8824;DHT22;4448;50.904;4.694;2023-11-21T12:25:16;12.50;99.90
8824;DHT22;4448;50.904;4.694;2023-11-21T12:27:53;12.50;99.90
8824;DHT22;4448;50.904;4.694;2023-11-21T12:30:21;12.50;99.90
8824;DHT22;4448;50.904;4.694;2023-11-21T12:32:53;12.50;99.90
8824;DHT22;4448;50.904;4.694;2023-11-21T12:35:22;12.40;99.90
8824;DHT22;4448;50.904;4.694;2023-11-21T12:37:49;12.40;99.90
8824;DHT22;4448;50.904;4.694;2023-11-21T12:40:16;12.40;99.90
8824;DHT22;4448;50.904;4.694;2023-11-21T12:42:44;12.40;99.90
8824;DHT22;4448;50.904;4.694;2023-11-21T12:47:43;12.30;99.90
8824;DHT22;4448;50.904;4.694;2023-11-21T12:50:09;12.30;99.90
8824;DHT22;4448;50.904;4.694;2023-11-21T12:52:45;12.20;99.90
8824;DHT22;4448;50.904;4.694;2023-11-21T12:55:22;12.20;99.90
8824;DHT22;4448;50.904;4.694;2023-11-21T12:57:53;12.20;99.90
8824;DHT22;4448;50.904;4.694;2023-11-21T13:00:32;12.20;99.90
8824;DHT22;4448;50.904;4.694;2023-11-21T13:02:59;12.20;99.90
8824;DHT22;4448;50.904;4.694;2023-11-21T13:05:33;12.20;99.90
8824;DHT22;4448;50.904;4.694;2023-11-21T13:08:02;12.20;99.90
8824;DHT22;4448;50.904;4.694;2023-11-21T13:10:30;12.30;99.90
8824;DHT22;4448;50.904;4.694;2023-11-21T13:12:58;12.30;99.90
8824;DHT22;4448;50.904;4.694;2023-11-21T13:15:27;12.30;99.90
8824;DHT22;4448;50.904;4.694;2023-11-21T13:17:53;12.30;99.90
8824;DHT22;4448;50.904;4.694;2023-11-21T13:20:20;12.30;99.90
8824;DHT22;4448;50.904;4.694;2023-11-21T13:22:54;12.30;99.90
8824;DHT22;4448;50.904;4.694;2023-11-21T13:25:21;12.40;99.90
8824;DHT22;4448;50.904;4.694;2023-11-21T13:27:46;12.40;99.90
8824;DHT22;4448;50.904;4.694;2023-11-21T13:30:13;12.40;99.90
8824;DHT22;4448;50.904;4.694;2023-11-21T13:32:45;12.30;99.90
8824;DHT22;4448;50.904;4.694;2023-11-21T13:35:12;12.40;99.90
8824;DHT22;4448;50.904;4.694;2023-11-21T13:37:50;12.30;99.90
8824;DHT22;4448;50.904;4.694;2023-11-21T13:40:24;12.30;99.90
8824;DHT22;4448;50.904;4.694;2023-11-21T13:42:56;12.30;99.90
8824;DHT22;4448;50.904;4.694;2023-11-21T13:45:25;12.20;99.90
8824;DHT22;4448;50.904;4.694;2023-11-21T13:47:53;12.20;99.90
8824;DHT22;4448;50.904;4.694;2023-11-21T13:50:30;12.20;99.90
8824;DHT22;4448;50.904;4.694;2023-11-21T13:53:03;12.20;99.90
8824;DHT22;4448;50.904;4.694;2023-11-21T13:55:36;12.20;99.90
8824;DHT22;4448;50.904;4.694;2023-11-21T13:58:03;12.20;99.90
8824;DHT22;4448;50.904;4.694;2023-11-21T14:00:30;12.10;99.90
8824;DHT22;4448;50.904;4.694;2023-11-21T14:03:07;12.10;99.90
8824;DHT22;4448;50.904;4.694;2023-11-21T14:05:43;12.10;99.90
8824;DHT22;4448;50.904;4.694;2023-11-21T14:08:10;12.10;99.90
8824;DHT22;4448;50.904;4.694;2023-11-21T14:10:37;12.10;99.90
8824;DHT22;4448;50.904;4.694;2023-11-21T14:13:09;12.10;99.90
8824;DHT22;4448;50.904;4.694;2023-11-21T14:15:41;12.10;99.90
8824;DHT22;4448;50.904;4.694;2023-11-21T14:18:11;12.10;99.90
8824;DHT22;4448;50.904;4.694;2023-11-21T14:20:40;12.10;99.90
8824;DHT22;4448;50.904;4.694;2023-11-21T14:23:07;12.10;99.90
8824;DHT22;4448;50.904;4.694;2023-11-21T14:25:34;12.10;99.90
8824;DHT22;4448;50.904;4.694;2023-11-21T14:28:02;12.20;99.90
8824;DHT22;4448;50.904;4.694;2023-11-21T14:30:29;12.20;99.90
8824;DHT22;4448;50.904;4.694;2023-11-21T14:32:58;12.20;99.90
8824;DHT22;4448;50.904;4.694;2023-11-21T14:35:23;12.20;99.90
8824;DHT22;4448;50.904;4.694;2023-11-21T14:37:49;12.20;99.90
8824;DHT22;4448;50.904;4.694;2023-11-21T14:40:15;12.20;99.90
8824;DHT22;4448;50.904;4.694;2023-11-21T14:42:44;12.20;99.90
8824;DHT22;4448;50.904;4.694;2023-11-21T14:45:13;12.20;99.90
8824;DHT22;4448;50.904;4.694;2023-11-21T14:47:41;12.20;99.90
8824;DHT22;4448;50.904;4.694;2023-11-21T14:50:12;12.20;99.90
8824;DHT22;4448;50.904;4.694;2023-11-21T14:53:00;12.20;99.90
8824;DHT22;4448;50.904;4.694;2023-11-21T14:55:27;12.10;99.90
8824;DHT22;4448;50.904;4.694;2023-11-21T14:58:12;12.10;99.90
8824;DHT22;4448;50.904;4.694;2023-11-21T15:00:41;11.90;99.90
8824;DHT22;4448;50.904;4.694;2023-11-21T15:08:56;12.00;99.90
8824;DHT22;4448;50.904;4.694;2023-11-21T15:11:50;12.20;99.90
8824;DHT22;4448;50.904;4.694;2023-11-21T15:14:20;11.90;99.90
8824;DHT22;4448;50.904;4.694;2023-11-21T15:16:46;11.50;99.90
8824;DHT22;4448;50.904;4.694;2023-11-21T15:19:16;11.80;99.90
8824;DHT22;4448;50.904;4.694;2023-11-21T15:21:44;11.90;99.90
8824;DHT22;4448;50.904;4.694;2023-11-21T15:24:12;11.90;99.90
8824;DHT22;4448;50.904;4.694;2023-11-21T15:26:40;11.90;99.90
8824;DHT22;4448;50.904;4.694;2023-11-21T15:29:05;11.90;99.90
8824;DHT22;4448;50.904;4.694;2023-11-21T15:31:31;11.90;99.90
8824;DHT22;4448;50.904;4.694;2023-11-21T15:33:57;11.50;99.90
8824;DHT22;4448;50.904;4.694;2023-11-21T15:36:28;12.10;99.90
8824;DHT22;4448;50.904;4.694;2023-11-21T15:38:54;11.90;99.90
8824;DHT22;4448;50.904;4.694;2023-11-21T15:41:20;11.60;99.90
8824;DHT22;4448;50.904;4.694;2023-11-21T15:46:14;11.70;99.90
8824;DHT22;4448;50.904;4.694;2023-11-21T15:48:40;11.90;99.90
8824;DHT22;4448;50.904;4.694;2023-11-21T15:51:11;11.60;99.90
8824;DHT22;4448;50.904;4.694;2023-11-21T15:56:05;11.70;99.90
8824;DHT22;4448;50.904;4.694;2023-11-21T15:58:33;11.30;99.90
8824;DHT22;4448;50.904;4.694;2023-11-21T16:00:59;11.80;99.90
8824;DHT22;4448;50.904;4.694;2023-11-21T16:03:25;11.10;99.90
8824;DHT22;4448;50.904;4.694;2023-11-21T16:08:17;11.80;99.90
8824;DHT22;4448;50.904;4.694;2023-11-21T16:10:43;11.80;99.90
8824;DHT22;4448;50.904;4.694;2023-11-21T16:13:09;11.90;99.90
8824;DHT22;4448;50.904;4.694;2023-11-21T16:15:34;11.00;99.90
8824;DHT22;4448;50.904;4.694;2023-11-21T16:18:00;11.90;99.90
8824;DHT22;4448;50.904;4.694;2023-11-21T16:20:26;11.80;99.90
8824;DHT22;4448;50.904;4.694;2023-11-21T16:22:51;11.70;99.90
8824;DHT22;4448;50.904;4.694;2023-11-21T16:25:17;11.70;99.90
8824;DHT22;4448;50.904;4.694;2023-11-21T16:27:43;11.60;99.90
8824;DHT22;4448;50.904;4.694;2023-11-21T16:30:09;11.70;99.90
8824;DHT22;4448;50.904;4.694;2023-11-21T16:32:35;11.60;99.90
8824;DHT22;4448;50.904;4.694;2023-11-21T16:35:05;11.70;99.90
8824;DHT22;4448;50.904;4.694;2023-11-21T16:37:30;11.70;99.90
8824;DHT22;4448;50.904;4.694;2023-11-21T16:42:25;11.70;99.90
8824;DHT22;4448;50.904;4.694;2023-11-21T16:44:53;11.50;99.90
8824;DHT22;4448;50.904;4.694;2023-11-21T16:47:19;11.20;99.90